Time;durP1;ratioP1;P1;durP2;ratioP2;P2;SDS_P1;SDS_P2;PMS_P1;PMS_P2;Temp;Humidity;BMP_temperature;BMP_pressure;BME280_temperature;BME280_humidity;BME280_pressure;Samples;Min_cycle;Max_cycle;Signal;HPM_P1;HPM_P2
2021/09/16 00:00:02;;;;;;;2.67;1.47;;;18.20;99.90;;;;;;4967120;28;20205;-82
2021/09/16 00:02:28;;;;;;;1.30;1.03;;;18.20;99.90;;;;;;4958181;28;20216;-83
2021/09/16 00:04:54;;;;;;;3.60;1.57;;;18.10;99.90;;;;;;4971681;28;20932;-83
2021/09/16 00:07:19;;;;;;;1.40;1.30;;;18.00;99.90;;;;;;4973362;28;20192;-81
2021/09/16 00:09:45;;;;;;;1.67;1.57;;;18.00;99.90;;;;;;4971118;28;20224;-81
2021/09/16 00:12:10;;;;;;;1.50;0.93;;;18.20;99.90;;;;;;4972064;28;20184;-82
2021/09/16 00:14:36;;;;;;;6.50;1.23;;;18.20;99.90;;;;;;4969142;28;20819;-82
2021/09/16 00:17:02;;;;;;;1.03;1.00;;;18.20;99.90;;;;;;4966346;28;20188;-82
2021/09/16 00:19:27;;;;;;;1.87;1.73;;;18.20;99.90;;;;;;4961748;28;20209;-82
2021/09/16 00:21:53;;;;;;;2.57;1.10;;;18.10;99.90;;;;;;4972947;28;20188;-81
2021/09/16 00:24:18;;;;;;;1.33;0.93;;;18.10;99.90;;;;;;4965326;28;20196;-81
2021/09/16 00:26:44;;;;;;;3.30;3.00;;;18.10;99.90;;;;;;4973545;28;20668;-81
2021/09/16 00:29:10;;;;;;;2.80;1.47;;;18.00;99.90;;;;;;4972656;28;20184;-81
2021/09/16 00:31:36;;;;;;;1.50;1.40;;;18.00;99.90;;;;;;4975443;28;20188;-82
2021/09/16 00:34:02;;;;;;;1.83;1.13;;;18.20;99.90;;;;;;4972122;28;20536;-81
2021/09/16 00:36:27;;;;;;;0.70;0.70;;;18.30;99.90;;;;;;4971715;28;20198;-82
2021/09/16 00:38:53;;;;;;;3.07;1.53;;;18.40;99.90;;;;;;4975685;28;20215;-82
2021/09/16 00:41:18;;;;;;;0.80;0.80;;;18.60;99.90;;;;;;4968698;28;20219;-82
2021/09/16 00:43:44;;;;;;;0.80;0.77;;;18.60;99.90;;;;;;4975198;28;20192;-82
2021/09/16 00:46:09;;;;;;;1.33;1.20;;;18.70;99.90;;;;;;4975548;28;20219;-81
2021/09/16 00:48:35;;;;;;;0.87;0.87;;;18.80;99.90;;;;;;4970703;28;20195;-82
2021/09/16 00:51:01;;;;;;;0.97;0.83;;;18.80;99.90;;;;;;4963296;28;20287;-81
2021/09/16 00:53:28;;;;;;;1.87;1.00;;;18.70;99.90;;;;;;4964559;28;20234;-82
2021/09/16 00:55:55;;;;;;;13.50;1.73;;;18.70;99.90;;;;;;4976486;28;20180;-82
2021/09/16 00:58:23;;;;;;;1.13;1.10;;;18.60;99.90;;;;;;4967536;28;20188;-82
2021/09/16 01:00:48;;;;;;;0.80;0.70;;;18.60;99.90;;;;;;4966450;28;20701;-82
2021/09/16 01:03:14;;;;;;;0.97;0.97;;;18.70;99.90;;;;;;4969732;28;20250;-81
2021/09/16 01:05:39;;;;;;;2.07;1.17;;;18.70;99.90;;;;;;4970193;28;20243;-82
2021/09/16 01:08:05;;;;;;;1.33;1.23;;;18.60;99.90;;;;;;4961987;28;20189;-82
2021/09/16 01:10:31;;;;;;;1.33;1.23;;;18.70;99.90;;;;;;4971409;28;20224;-82
2021/09/16 01:12:56;;;;;;;0.87;0.70;;;18.70;99.90;;;;;;4973808;28;20224;-82
2021/09/16 01:15:22;;;;;;;1.23;1.13;;;18.80;99.90;;;;;;4967303;28;20187;-81
2021/09/16 01:17:48;;;;;;;2.33;0.97;;;18.60;99.90;;;;;;4974463;28;20195;-82
2021/09/16 01:20:14;;;;;;;1.40;1.30;;;18.60;99.90;;;;;;4973429;28;20210;-82
2021/09/16 01:22:40;;;;;;;2.27;1.10;;;18.60;99.90;;;;;;4961192;28;20200;-82
2021/09/16 01:25:07;;;;;;;2.40;1.33;;;18.60;99.90;;;;;;4971411;28;20664;-81
2021/09/16 01:27:33;;;;;;;1.17;1.10;;;18.60;99.90;;;;;;4974775;28;20623;-81
2021/09/16 01:29:59;;;;;;;1.43;1.37;;;18.50;99.90;;;;;;4967188;28;20235;-82
2021/09/16 01:32:25;;;;;;;1.30;1.23;;;18.60;99.90;;;;;;4975594;28;20193;-81
2021/09/16 01:34:52;;;;;;;2.13;0.93;;;18.50;99.90;;;;;;4972877;28;20751;-82
2021/09/16 01:37:17;;;;;;;0.50;0.50;;;18.30;99.90;;;;;;4970648;28;20268;-82
2021/09/16 01:39:43;;;;;;;0.80;0.80;;;18.40;99.90;;;;;;4969427;28;20283;-82
2021/09/16 01:42:09;;;;;;;1.77;1.40;;;18.50;99.90;;;;;;4976047;28;20314;-82
2021/09/16 01:44:34;;;;;;;2.57;1.23;;;18.30;99.90;;;;;;4972092;28;20200;-82
2021/09/16 01:47:02;;;;;;;0.87;0.83;;;18.20;99.90;;;;;;4961181;28;20200;-82
2021/09/16 01:49:30;;;;;;;1.87;1.00;;;18.40;99.90;;;;;;4970746;28;20224;-82
2021/09/16 01:51:56;;;;;;;0.50;0.50;;;18.50;99.90;;;;;;4960390;28;20177;-82
2021/09/16 01:54:21;;;;;;;0.67;0.67;;;18.60;99.90;;;;;;4966429;28;20558;-82
2021/09/16 01:56:47;;;;;;;1.10;0.77;;;18.70;99.90;;;;;;4963067;28;20197;-81
2021/09/16 01:59:13;;;;;;;1.13;1.03;;;18.60;99.90;;;;;;4973463;28;20609;-82
2021/09/16 02:01:38;;;;;;;2.40;1.60;;;18.50;99.90;;;;;;4974858;28;20184;-82
2021/09/16 02:04:04;;;;;;;1.27;1.17;;;18.40;99.90;;;;;;4967369;28;20185;-82
2021/09/16 02:06:30;;;;;;;1.43;0.93;;;18.40;99.90;;;;;;4969929;28;20188;-82
2021/09/16 02:08:55;;;;;;;0.60;0.60;;;18.30;99.90;;;;;;4964450;28;20553;-81
2021/09/16 02:11:21;;;;;;;1.13;1.07;;;18.40;99.90;;;;;;4962327;28;20870;-81
2021/09/16 02:13:46;;;;;;;4.67;1.00;;;18.20;99.90;;;;;;4972939;28;20188;-81
2021/09/16 02:16:13;;;;;;;1.47;1.10;;;18.00;99.90;;;;;;4971419;28;20183;-82
2021/09/16 02:18:38;;;;;;;0.97;0.63;;;17.80;99.90;;;;;;4972957;28;20193;-81
2021/09/16 02:21:04;;;;;;;3.50;0.83;;;17.70;99.90;;;;;;4969094;28;20212;-81
2021/09/16 02:23:30;;;;;;;1.03;1.03;;;17.80;99.90;;;;;;4967900;28;20207;-82
2021/09/16 02:25:55;;;;;;;1.63;0.53;;;17.90;99.90;;;;;;4967269;28;20181;-81
2021/09/16 02:28:21;;;;;;;0.50;0.40;;;17.80;99.90;;;;;;4971844;28;20195;-81
2021/09/16 02:30:46;;;;;;;0.63;0.47;;;17.90;99.90;;;;;;4970576;28;20770;-82
2021/09/16 02:33:12;;;;;;;0.67;0.67;;;17.90;99.90;;;;;;4973422;28;20240;-82
2021/09/16 02:35:38;;;;;;;2.13;0.90;;;18.00;99.90;;;;;;4971303;28;20793;-81
2021/09/16 02:38:04;;;;;;;0.30;0.30;;;18.10;99.90;;;;;;4967144;28;20189;-82
2021/09/16 02:40:29;;;;;;;0.53;0.50;;;18.20;99.90;;;;;;4972096;28;20220;-82
2021/09/16 02:42:55;;;;;;;0.50;0.50;;;18.20;99.90;;;;;;4975280;28;20184;-82
2021/09/16 02:45:21;;;;;;;2.57;0.90;;;18.30;99.90;;;;;;4972430;28;20266;-82
2021/09/16 02:47:46;;;;;;;0.67;0.67;;;18.40;99.90;;;;;;4974217;28;20183;-82
2021/09/16 02:50:12;;;;;;;0.80;0.50;;;18.20;99.90;;;;;;4981832;28;20240;-82
2021/09/16 02:52:38;;;;;;;0.70;0.70;;;18.30;99.90;;;;;;4978479;28;20269;-82
2021/09/16 02:55:06;;;;;;;0.33;0.33;;;18.10;99.90;;;;;;4986270;28;20180;-81
2021/09/16 02:57:31;;;;;;;1.07;0.80;;;18.20;99.90;;;;;;4983593;28;20180;-82
2021/09/16 02:59:57;;;;;;;0.60;0.60;;;18.20;99.90;;;;;;4982237;28;20791;-81
2021/09/16 03:02:22;;;;;;;0.97;0.87;;;17.90;99.90;;;;;;4966973;28;20192;-81
2021/09/16 03:04:48;;;;;;;0.40;0.40;;;18.10;99.90;;;;;;4969405;28;20195;-81
2021/09/16 03:07:14;;;;;;;0.90;0.90;;;18.20;99.90;;;;;;4977709;28;20566;-82
2021/09/16 03:09:39;;;;;;;0.87;0.80;;;18.30;99.90;;;;;;4968028;28;20219;-81
2021/09/16 03:12:05;;;;;;;0.40;0.40;;;18.30;99.90;;;;;;4971017;28;20263;-82
2021/09/16 03:14:31;;;;;;;1.23;0.97;;;18.30;99.90;;;;;;4966180;28;20196;-81
2021/09/16 03:16:56;;;;;;;1.17;0.50;;;18.30;99.90;;;;;;4968691;28;20185;-81
2021/09/16 03:19:22;;;;;;;0.53;0.53;;;18.20;99.90;;;;;;4969868;28;20201;-82
2021/09/16 03:21:47;;;;;;;0.50;0.50;;;18.20;99.90;;;;;;4966611;28;20203;-82
2021/09/16 03:24:13;;;;;;;0.60;0.60;;;18.20;99.90;;;;;;4970714;28;20192;-82
2021/09/16 03:26:38;;;;;;;0.60;0.60;;;18.20;99.90;;;;;;4976676;28;20707;-81
2021/09/16 03:29:04;;;;;;;0.37;0.37;;;18.10;99.90;;;;;;4978090;28;20210;-82
2021/09/16 03:31:30;;;;;;;1.23;0.70;;;18.10;99.90;;;;;;4977648;28;20212;-82
2021/09/16 03:33:55;;;;;;;0.80;0.80;;;17.80;99.90;;;;;;4974790;28;20172;-81
2021/09/16 03:36:21;;;;;;;1.20;1.03;;;17.70;99.90;;;;;;4977348;28;20701;-82
2021/09/16 03:38:47;;;;;;;0.40;0.40;;;17.70;99.90;;;;;;4977131;28;20180;-81
2021/09/16 03:41:12;;;;;;;1.40;0.47;;;17.90;99.90;;;;;;4972298;28;20213;-82
2021/09/16 03:43:38;;;;;;;1.10;1.00;;;17.90;99.90;;;;;;4971898;28;20263;-82
2021/09/16 03:46:04;;;;;;;0.43;0.43;;;18.00;99.90;;;;;;4959065;28;20222;-81
2021/09/16 03:48:29;;;;;;;6.23;0.40;;;17.90;99.90;;;;;;4969008;28;20192;-81
2021/09/16 03:50:55;;;;;;;0.50;0.50;;;18.00;99.90;;;;;;4974966;28;20657;-81
2021/09/16 03:53:20;;;;;;;0.70;0.70;;;18.10;99.90;;;;;;4971807;28;20263;-81
2021/09/16 03:55:46;;;;;;;3.73;0.87;;;18.20;99.90;;;;;;4973017;28;20188;-81
2021/09/16 03:58:11;;;;;;;2.23;0.60;;;18.00;99.90;;;;;;4973603;28;20651;-81
2021/09/16 04:00:37;;;;;;;0.60;0.60;;;17.90;99.90;;;;;;4965996;28;20226;-81
2021/09/16 04:03:10;;;;;;;0.70;0.70;;;17.70;99.90;;;;;;4968576;28;20328;-81
2021/09/16 04:05:38;;;;;;;0.40;0.40;;;17.90;99.90;;;;;;4969868;28;20642;-81
2021/09/16 04:08:04;;;;;;;0.80;0.70;;;17.70;99.90;;;;;;4970710;28;20257;-81
2021/09/16 04:10:30;;;;;;;0.40;0.40;;;17.80;99.90;;;;;;4973170;28;20677;-81
2021/09/16 04:12:55;;;;;;;0.47;0.47;;;17.90;99.90;;;;;;4965402;28;20184;-81
2021/09/16 04:15:21;;;;;;;0.50;0.50;;;17.90;99.90;;;;;;4971408;28;20197;-81
2021/09/16 04:17:46;;;;;;;0.40;0.30;;;17.70;99.90;;;;;;4962390;28;20188;-81
2021/09/16 04:20:12;;;;;;;3.13;1.07;;;17.80;99.90;;;;;;4969368;28;20262;-81
2021/09/16 04:22:38;;;;;;;0.87;0.87;;;17.80;99.90;;;;;;4964614;28;20196;-81
2021/09/16 04:25:04;;;;;;;1.03;0.67;;;17.80;99.90;;;;;;4967953;28;20196;-81
2021/09/16 04:27:30;;;;;;;0.60;0.60;;;17.60;99.90;;;;;;4966085;28;20610;-81
2021/09/16 04:29:55;;;;;;;0.70;0.70;;;17.50;99.90;;;;;;4965626;28;20205;-81
2021/09/16 04:32:21;;;;;;;2.23;0.83;;;17.30;99.90;;;;;;4968771;28;20185;-80
2021/09/16 04:34:46;;;;;;;1.43;1.00;;;17.50;99.90;;;;;;4970623;28;20263;-81
2021/09/16 04:37:13;;;;;;;0.50;0.50;;;17.40;99.90;;;;;;4975174;28;20235;-81
2021/09/16 04:39:39;;;;;;;0.70;0.40;;;17.40;99.90;;;;;;4973271;28;20239;-81
2021/09/16 04:42:06;;;;;;;0.40;0.40;;;17.40;99.90;;;;;;4976606;28;20234;-81
2021/09/16 04:44:32;;;;;;;0.77;0.60;;;17.40;99.90;;;;;;4972271;28;20274;-81
2021/09/16 04:46:58;;;;;;;2.20;1.07;;;17.40;99.90;;;;;;4966997;28;20244;-81
2021/09/16 04:49:24;;;;;;;0.70;0.70;;;17.30;99.90;;;;;;4965059;28;20204;-81
2021/09/16 04:51:50;;;;;;;1.20;0.83;;;17.10;99.90;;;;;;4972253;28;20200;-81
2021/09/16 04:54:16;;;;;;;0.57;0.57;;;17.20;99.90;;;;;;4968807;28;20188;-81
2021/09/16 04:56:42;;;;;;;0.50;0.50;;;17.20;99.90;;;;;;4972306;28;20611;-81
2021/09/16 04:59:07;;;;;;;1.07;0.67;;;17.10;99.90;;;;;;4971944;28;20291;-81
2021/09/16 05:01:33;;;;;;;0.70;0.70;;;17.10;99.90;;;;;;4977779;28;20192;-81
2021/09/16 05:03:58;;;;;;;0.90;0.50;;;17.30;99.90;;;;;;4965593;28;20184;-81
2021/09/16 05:06:24;;;;;;;0.80;0.57;;;17.30;99.90;;;;;;4963151;28;20196;-81
2021/09/16 05:08:49;;;;;;;0.53;0.53;;;17.40;99.90;;;;;;4972836;28;20184;-81
2021/09/16 05:11:15;;;;;;;0.60;0.60;;;17.40;99.90;;;;;;4973517;28;20224;-81
2021/09/16 05:13:41;;;;;;;1.00;0.97;;;17.50;99.90;;;;;;4976087;28;20255;-82
2021/09/16 05:16:06;;;;;;;0.83;0.83;;;17.50;99.90;;;;;;4972746;28;20552;-82
2021/09/16 05:18:32;;;;;;;1.40;0.83;;;17.50;99.90;;;;;;4972201;28;20727;-82
2021/09/16 05:20:58;;;;;;;0.43;0.43;;;17.40;99.90;;;;;;4974538;28;20299;-82
2021/09/16 05:23:23;;;;;;;2.30;1.47;;;17.40;99.90;;;;;;4976129;28;20239;-83
2021/09/16 05:25:49;;;;;;;0.70;0.67;;;17.20;99.90;;;;;;4975205;28;20203;-81
2021/09/16 05:28:14;;;;;;;0.57;0.57;;;17.10;99.90;;;;;;4976902;28;20212;-81
2021/09/16 05:30:40;;;;;;;0.90;0.67;;;17.20;99.90;;;;;;4974874;28;20212;-81
2021/09/16 05:33:09;;;;;;;1.03;0.50;;;17.20;99.90;;;;;;4971249;28;20196;-81
2021/09/16 05:35:36;;;;;;;1.20;1.00;;;17.30;99.90;;;;;;4975783;28;20180;-81
2021/09/16 05:38:02;;;;;;;1.60;0.90;;;16.90;99.90;;;;;;4976575;28;20177;-81
2021/09/16 05:40:28;;;;;;;1.00;0.93;;;16.90;99.90;;;;;;4976975;28;20207;-81
2021/09/16 05:42:53;;;;;;;2.57;0.83;;;16.90;99.90;;;;;;4976718;28;20191;-81
2021/09/16 05:45:19;;;;;;;1.43;1.00;;;16.80;99.90;;;;;;4973850;28;20323;-84
2021/09/16 05:47:44;;;;;;;2.27;0.97;;;16.70;99.90;;;;;;4975254;28;20191;-83
2021/09/16 05:50:10;;;;;;;0.80;0.80;;;16.60;99.90;;;;;;4971028;28;20230;-83
2021/09/16 05:52:36;;;;;;;1.27;0.93;;;16.50;99.90;;;;;;4969784;28;20187;-83
2021/09/16 05:55:01;;;;;;;0.87;0.83;;;16.40;99.90;;;;;;4972810;28;20662;-83
2021/09/16 05:57:27;;;;;;;1.23;1.17;;;16.30;99.90;;;;;;4965004;28;20182;-83
2021/09/16 05:59:53;;;;;;;1.33;1.23;;;16.30;99.90;;;;;;4972152;28;20223;-84
2021/09/16 06:02:19;;;;;;;3.90;1.67;;;16.20;99.90;;;;;;4972392;28;20662;-83
2021/09/16 06:04:45;;;;;;;1.07;1.07;;;16.20;99.90;;;;;;4975881;28;20206;-82
2021/09/16 06:07:10;;;;;;;0.67;0.67;;;16.30;99.90;;;;;;4965491;28;20193;-83
2021/09/16 06:09:36;;;;;;;1.03;1.03;;;16.20;99.90;;;;;;4971956;28;20214;-83
2021/09/16 06:12:04;;;;;;;0.50;0.50;;;16.30;99.90;;;;;;4970684;28;20221;-83
2021/09/16 06:14:30;;;;;;;0.80;0.77;;;16.40;99.90;;;;;;4972765;28;20650;-81
2021/09/16 06:16:56;;;;;;;1.23;0.50;;;16.40;99.90;;;;;;4966903;28;20210;-81
2021/09/16 06:19:21;;;;;;;0.70;0.70;;;16.40;99.90;;;;;;4971243;28;20194;-81
2021/09/16 06:21:47;;;;;;;1.10;0.80;;;16.40;99.90;;;;;;4972161;28;20215;-81
2021/09/16 06:24:13;;;;;;;0.40;0.40;;;16.30;99.90;;;;;;4965751;28;20283;-81
2021/09/16 06:26:38;;;;;;;1.47;0.67;;;16.40;99.90;;;;;;4966086;28;20248;-81
2021/09/16 06:29:04;;;;;;;0.90;0.67;;;16.60;99.90;;;;;;4974787;28;20611;-81
2021/09/16 06:31:30;;;;;;;0.60;0.43;;;16.80;99.90;;;;;;4968093;28;20218;-81
2021/09/16 06:33:56;;;;;;;0.77;0.77;;;17.00;99.90;;;;;;4975550;28;20649;-81
2021/09/16 06:36:22;;;;;;;0.73;0.73;;;16.90;99.90;;;;;;4973272;28;20224;-81
2021/09/16 06:38:47;;;;;;;2.03;0.93;;;16.80;99.90;;;;;;4975628;28;20225;-81
2021/09/16 06:41:13;;;;;;;1.83;1.10;;;16.50;99.90;;;;;;4977919;28;20584;-81
2021/09/16 06:43:39;;;;;;;0.23;0.23;;;16.70;99.90;;;;;;4967221;28;20673;-81
2021/09/16 06:46:04;;;;;;;0.90;0.90;;;16.80;99.90;;;;;;4974717;28;20246;-82
2021/09/16 06:48:30;;;;;;;0.63;0.50;;;16.70;99.90;;;;;;4975393;28;20188;-81
2021/09/16 06:50:56;;;;;;;0.40;0.37;;;16.90;99.90;;;;;;4970336;28;20295;-82
2021/09/16 06:53:22;;;;;;;0.57;0.57;;;16.90;99.90;;;;;;4965166;28;20195;-82
2021/09/16 06:55:48;;;;;;;1.60;0.87;;;17.00;99.90;;;;;;4969065;28;20195;-81
2021/09/16 06:58:14;;;;;;;0.27;0.27;;;17.30;99.90;;;;;;4973479;28;20186;-82
2021/09/16 07:00:40;;;;;;;0.67;0.67;;;17.20;99.90;;;;;;4965350;28;20223;-82
2021/09/16 07:03:05;;;;;;;0.70;0.50;;;17.30;99.90;;;;;;4971413;28;20631;-82
2021/09/16 07:05:31;;;;;;;1.67;0.80;;;17.50;99.90;;;;;;4987093;28;20196;-82
2021/09/16 07:07:56;;;;;;;1.23;0.87;;;17.20;99.90;;;;;;4970213;28;20206;-82
2021/09/16 07:10:22;;;;;;;0.93;0.63;;;17.20;99.90;;;;;;4972083;28;20222;-81
2021/09/16 07:12:48;;;;;;;0.53;0.53;;;17.70;99.90;;;;;;4972087;28;20354;-82
2021/09/16 07:15:13;;;;;;;0.57;0.57;;;17.50;99.90;;;;;;4968520;28;20196;-82
2021/09/16 07:17:39;;;;;;;0.73;0.40;;;17.60;99.90;;;;;;4971588;28;20191;-83
2021/09/16 07:20:06;;;;;;;0.50;0.50;;;17.70;99.90;;;;;;4970756;28;20239;-83
2021/09/16 07:22:31;;;;;;;1.43;0.70;;;17.40;99.90;;;;;;4967503;28;20282;-83
2021/09/16 07:24:57;;;;;;;0.40;0.40;;;17.20;99.90;;;;;;4963705;28;20303;-83
2021/09/16 07:27:22;;;;;;;0.47;0.47;;;17.00;99.90;;;;;;4967186;28;20547;-83
2021/09/16 07:29:48;;;;;;;0.50;0.50;;;17.10;99.90;;;;;;4966677;28;20562;-83
2021/09/16 07:32:14;;;;;;;0.63;0.47;;;17.30;99.90;;;;;;4970596;28;20272;-83
2021/09/16 07:34:39;;;;;;;0.47;0.47;;;17.30;99.90;;;;;;4966371;28;20184;-83
2021/09/16 07:37:06;;;;;;;0.30;0.30;;;17.40;99.90;;;;;;4963417;28;20188;-83
2021/09/16 07:39:31;;;;;;;0.57;0.30;;;17.40;99.90;;;;;;4957018;28;20210;-83
2021/09/16 07:41:57;;;;;;;1.33;0.70;;;17.40;99.90;;;;;;4959658;28;20298;-82
2021/09/16 07:44:23;;;;;;;0.10;0.10;;;17.30;99.90;;;;;;4965206;28;20195;-82
2021/09/16 07:46:49;;;;;;;0.17;0.17;;;17.30;99.90;;;;;;4972180;28;20251;-83
2021/09/16 07:49:14;;;;;;;0.20;0.20;;;17.30;99.90;;;;;;4968138;28;20594;-83
2021/09/16 07:51:40;;;;;;;0.10;0.10;;;17.50;99.90;;;;;;4957392;28;20205;-83
2021/09/16 07:54:06;;;;;;;0.10;0.10;;;17.50;99.90;;;;;;4974411;28;20561;-83
2021/09/16 07:56:32;;;;;;;0.20;0.20;;;17.40;99.90;;;;;;4964416;28;20199;-83
2021/09/16 07:58:57;;;;;;;0.10;0.10;;;17.40;99.90;;;;;;4970501;28;20188;-83
2021/09/16 08:01:24;;;;;;;0.23;0.23;;;17.40;99.90;;;;;;4965517;28;20246;-83
2021/09/16 08:03:50;;;;;;;0.40;0.40;;;17.50;99.90;;;;;;4965638;28;20187;-83
2021/09/16 08:06:17;;;;;;;0.20;0.20;;;17.50;99.90;;;;;;4968147;28;20254;-83
2021/09/16 08:08:43;;;;;;;0.57;0.20;;;17.70;99.90;;;;;;4970296;28;20188;-83
2021/09/16 08:11:08;;;;;;;0.20;0.20;;;17.60;99.90;;;;;;4974028;28;20219;-82
2021/09/16 08:13:34;;;;;;;1.83;0.50;;;17.60;99.90;;;;;;4967015;28;20179;-83
2021/09/16 08:16:00;;;;;;;0.40;0.40;;;17.80;99.90;;;;;;4967597;28;20184;-83
2021/09/16 08:18:25;;;;;;;0.30;0.30;;;17.60;99.90;;;;;;4968159;28;20185;-82
2021/09/16 08:20:53;;;;;;;0.50;0.37;;;17.80;99.90;;;;;;4963583;28;20208;-83
2021/09/16 08:23:20;;;;;;;0.40;0.40;;;17.80;99.90;;;;;;4971193;28;20195;-83
2021/09/16 08:25:46;;;;;;;0.77;0.37;;;18.20;99.90;;;;;;4969996;28;20190;-83
2021/09/16 08:28:13;;;;;;;0.20;0.20;;;17.90;99.90;;;;;;4973210;28;20196;-81
2021/09/16 08:30:40;;;;;;;0.20;0.20;;;17.90;99.90;;;;;;4967115;28;20219;-81
2021/09/16 08:33:05;;;;;;;0.20;0.20;;;17.60;99.90;;;;;;4972268;28;20176;-81
2021/09/16 08:35:31;;;;;;;0.30;0.30;;;17.60;99.90;;;;;;4970318;28;20183;-81
2021/09/16 08:37:57;;;;;;;0.83;0.53;;;18.10;99.90;;;;;;4970202;28;20656;-81
2021/09/16 08:40:23;;;;;;;3.20;0.47;;;18.40;99.90;;;;;;4971114;28;20203;-81
2021/09/16 08:42:49;;;;;;;0.30;0.30;;;18.30;99.90;;;;;;4971296;28;20188;-81
2021/09/16 08:45:17;;;;;;;0.40;0.40;;;18.10;99.90;;;;;;4973057;28;20530;-81
2021/09/16 08:47:48;;;;;;;0.77;0.20;;;18.50;99.90;;;;;;4969672;28;20176;-80
2021/09/16 08:50:17;;;;;;;1.20;0.43;;;18.60;99.90;;;;;;4971783;28;20216;-81
2021/09/16 08:52:45;;;;;;;0.30;0.30;;;18.50;99.90;;;;;;4974144;28;20181;-81
2021/09/16 08:55:12;;;;;;;0.30;0.20;;;18.20;99.90;;;;;;4972001;28;20188;-81
2021/09/16 08:57:40;;;;;;;0.43;0.40;;;18.40;99.90;;;;;;4972263;28;20187;-81
2021/09/16 09:00:10;;;;;;;0.50;0.50;;;18.30;99.90;;;;;;4964399;28;20241;-81
2021/09/16 09:02:36;;;;;;;0.10;0.10;;;18.20;99.90;;;;;;4974193;28;20613;-81
2021/09/16 09:05:05;;;;;;;1.50;0.53;;;18.00;99.90;;;;;;4964223;28;20671;-81
2021/09/16 09:08:01;;;;;;;0.20;0.20;;;18.10;99.90;;;;;;4967909;28;20275;-81
2021/09/16 09:10:43;;;;;;;0.40;0.40;;;18.70;99.90;;;;;;4952960;28;20228;-81
2021/09/16 09:13:30;;;;;;;0.10;0.10;;;19.30;99.90;;;;;;4980472;28;20808;-81
2021/09/16 09:16:07;;;;;;;0.40;0.40;;;19.70;99.90;;;;;;4956931;28;20188;-81
2021/09/16 09:18:51;;;;;;;0.13;0.13;;;19.90;99.90;;;;;;4973795;28;20169;-81
2021/09/16 09:21:18;;;;;;;0.30;0.30;;;20.10;99.90;;;;;;4963072;28;20237;-81
2021/09/16 09:23:54;;;;;;;0.10;0.10;;;20.20;99.90;;;;;;4973632;28;20216;-81
2021/09/16 09:26:32;;;;;;;0.40;0.40;;;20.10;99.90;;;;;;4974823;28;20275;-81
2021/09/16 09:29:06;;;;;;;0.30;0.30;;;19.40;99.90;;;;;;4972103;28;20568;-82
2021/09/16 09:31:32;;;;;;;0.50;0.50;;;19.50;99.90;;;;;;4969319;28;20239;-82
2021/09/16 09:33:58;;;;;;;1.13;0.30;;;19.80;99.90;;;;;;4968917;28;20220;-81
2021/09/16 09:36:23;;;;;;;0.30;0.30;;;20.10;99.90;;;;;;4971698;28;20642;-81
2021/09/16 09:38:59;;;;;;;0.20;0.20;;;20.00;99.90;;;;;;4967540;28;20185;-82
2021/09/16 09:41:34;;;;;;;0.30;0.27;;;19.90;99.90;;;;;;4974985;28;20230;-81
2021/09/16 09:44:07;;;;;;;0.10;0.10;;;19.80;99.90;;;;;;4963104;28;20190;-81
2021/09/16 09:46:51;;;;;;;0.10;0.10;;;20.10;99.90;;;;;;4973827;28;20189;-81
2021/09/16 09:49:26;;;;;;;0.20;0.20;;;20.40;99.90;;;;;;4972297;28;20196;-81
2021/09/16 09:51:57;;;;;;;0.23;0.23;;;20.20;99.90;;;;;;4973935;28;20207;-82
2021/09/16 09:54:26;;;;;;;0.23;0.23;;;20.10;99.90;;;;;;4970213;28;20603;-81
2021/09/16 09:57:12;;;;;;;0.33;0.33;;;19.70;99.90;;;;;;4971602;28;20725;-81
2021/09/16 09:59:57;;;;;;;0.40;0.40;;;19.40;99.90;;;;;;4971961;28;20204;-80
2021/09/16 10:02:45;;;;;;;0.57;0.33;;;19.40;99.90;;;;;;4977012;28;20185;-82
2021/09/16 10:05:35;;;;;;;0.20;0.20;;;19.00;99.90;;;;;;4979624;28;20210;-81
2021/09/16 10:08:12;;;;;;;2.37;0.30;;;18.90;99.90;;;;;;4994474;28;20293;-81
2021/09/16 10:10:58;;;;;;;0.70;0.70;;;18.90;99.90;;;;;;4973788;28;20226;-82
2021/09/16 10:13:24;;;;;;;0.30;0.30;;;19.00;99.90;;;;;;4973877;28;20196;-81
2021/09/16 10:15:52;;;;;;;0.20;0.20;;;19.20;99.90;;;;;;4976386;28;20283;-81
2021/09/16 10:18:20;;;;;;;0.33;0.33;;;19.20;99.90;;;;;;4967391;28;20501;-82
2021/09/16 10:20:46;;;;;;;1.07;0.33;;;19.20;99.90;;;;;;4970053;28;20216;-81
2021/09/16 10:23:16;;;;;;;0.23;0.23;;;19.10;99.90;;;;;;4974851;28;20203;-81
2021/09/16 10:25:49;;;;;;;0.27;0.27;;;19.00;99.90;;;;;;4976798;28;20185;-81
2021/09/16 10:28:16;;;;;;;0.33;0.33;;;18.90;99.90;;;;;;4971853;28;20304;-81
2021/09/16 10:30:44;;;;;;;0.20;0.20;;;19.00;99.90;;;;;;4976380;28;20262;-81
2021/09/16 10:33:28;;;;;;;1.50;0.30;;;19.20;99.90;;;;;;4975516;28;20189;-81
2021/09/16 10:35:56;;;;;;;0.30;0.30;;;19.40;99.90;;;;;;4973225;28;20189;-82
2021/09/16 10:38:30;;;;;;;0.20;0.20;;;19.30;99.90;;;;;;4976377;28;20210;-81
2021/09/16 10:41:16;;;;;;;0.23;0.23;;;19.10;99.90;;;;;;4965786;28;20295;-82
2021/09/16 10:43:44;;;;;;;0.27;0.27;;;19.10;99.90;;;;;;4966818;28;20186;-82
2021/09/16 10:46:37;;;;;;;0.10;0.10;;;19.10;99.90;;;;;;4969785;28;20185;-82
2021/09/16 10:49:28;;;;;;;0.37;0.37;;;19.20;99.90;;;;;;4972628;28;20673;-82
2021/09/16 10:52:16;;;;;;;0.53;0.40;;;19.30;99.90;;;;;;4966665;28;20247;-82
2021/09/16 10:54:51;;;;;;;0.30;0.30;;;19.30;99.90;;;;;;4970864;28;20176;-81
2021/09/16 10:57:19;;;;;;;0.20;0.20;;;19.30;99.90;;;;;;4974756;28;20550;-82
2021/09/16 10:59:50;;;;;;;0.30;0.30;;;19.20;99.90;;;;;;4970214;28;20209;-81
2021/09/16 11:02:24;;;;;;;0.30;0.27;;;19.10;99.90;;;;;;4974193;28;20186;-82
2021/09/16 11:04:56;;;;;;;0.30;0.30;;;19.10;99.90;;;;;;4963623;28;20189;-81
2021/09/16 11:12:46;;;;;;;0.30;0.30;;;18.80;99.90;;;;;;4976879;28;20605;-81
2021/09/16 11:15:23;;;;;;;0.20;0.20;;;19.10;99.90;;;;;;4962202;28;20197;-81
2021/09/16 11:17:48;;;;;;;0.40;0.40;;;19.10;99.90;;;;;;4976774;28;20180;-82
2021/09/16 11:20:14;;;;;;;0.20;0.20;;;19.40;99.90;;;;;;4969972;28;20212;-82
2021/09/16 11:22:40;;;;;;;0.33;0.33;;;19.50;99.90;;;;;;4976847;28;20571;-81
2021/09/16 11:25:08;;;;;;;0.53;0.53;;;19.30;99.90;;;;;;4970584;28;20194;-82
2021/09/16 11:27:36;;;;;;;0.20;0.20;;;19.40;99.90;;;;;;4976162;28;20220;-82
2021/09/16 11:30:05;;;;;;;0.40;0.37;;;19.30;99.90;;;;;;4973677;28;20220;-81
2021/09/16 11:32:33;;;;;;;0.30;0.30;;;19.30;99.90;;;;;;4967824;28;20195;-82
2021/09/16 11:35:06;;;;;;;0.53;0.53;;;19.20;99.90;;;;;;4976401;28;20180;-82
2021/09/16 11:37:57;;;;;;;0.33;0.30;;;19.20;99.90;;;;;;4977696;28;20231;-82
2021/09/16 11:40:32;;;;;;;0.30;0.20;;;18.70;99.90;;;;;;4966114;28;20219;-81
2021/09/16 11:43:00;;;;;;;0.20;0.20;;;18.70;99.90;;;;;;4973567;28;20183;-82
2021/09/16 11:45:28;;;;;;;0.20;0.20;;;18.60;99.90;;;;;;4971792;28;20662;-82
2021/09/16 11:48:27;;;;;;;0.20;0.20;;;18.90;99.90;;;;;;4972009;28;20220;-82
2021/09/16 11:51:03;;;;;;;0.10;0.10;;;19.10;99.90;;;;;;4956152;28;20753;-82
2021/09/16 11:53:35;;;;;;;0.23;0.20;;;19.00;99.90;;;;;;4977022;28;20195;-82
2021/09/16 11:56:06;;;;;;;0.20;0.20;;;19.00;99.90;;;;;;4970378;28;20208;-81
2021/09/16 11:58:33;;;;;;;0.10;0.10;;;19.40;99.90;;;;;;4966233;28;20178;-81
2021/09/16 12:01:03;;;;;;;0.97;0.60;;;19.60;99.90;;;;;;4971667;28;20236;-82
2021/09/16 12:03:31;;;;;;;0.87;0.40;;;19.30;99.90;;;;;;4964486;28;20197;-82
2021/09/16 12:05:59;;;;;;;0.20;0.20;;;19.40;99.90;;;;;;4974663;28;20320;-83
2021/09/16 12:08:37;;;;;;;0.20;0.20;;;19.40;99.90;;;;;;4968595;28;20545;-82
2021/09/16 12:11:04;;;;;;;0.60;0.40;;;19.80;99.90;;;;;;4967081;28;20294;-82
2021/09/16 12:13:34;;;;;;;0.10;0.10;;;20.20;99.90;;;;;;4972348;28;20657;-82
2021/09/16 12:16:05;;;;;;;0.30;0.30;;;20.40;99.90;;;;;;4975574;28;20262;-82
2021/09/16 12:18:31;;;;;;;0.13;0.13;;;20.50;99.90;;;;;;4972768;28;20180;-82
2021/09/16 12:20:57;;;;;;;0.20;0.20;;;20.50;99.90;;;;;;4970769;28;20642;-82
2021/09/16 12:23:23;;;;;;;0.30;0.30;;;20.60;99.90;;;;;;4973609;28;20191;-82
2021/09/16 12:25:58;;;;;;;0.37;0.30;;;20.70;99.90;;;;;;4967374;28;20200;-82
2021/09/16 12:28:26;;;;;;;0.10;0.10;;;20.80;99.90;;;;;;4974305;28;20188;-82
2021/09/16 12:30:51;;;;;;;0.10;0.10;;;20.60;99.90;;;;;;4970452;28;20688;-82
2021/09/16 12:33:38;;;;;;;0.20;0.20;;;21.00;99.90;;;;;;4977004;28;20189;-82
2021/09/16 12:36:18;;;;;;;0.20;0.20;;;21.30;99.90;;;;;;4970769;28;20176;-82
2021/09/16 12:38:49;;;;;;;0.17;0.17;;;21.60;99.90;;;;;;4967670;28;20184;-82
2021/09/16 12:41:24;;;;;;;0.30;0.30;;;21.00;99.90;;;;;;4971859;28;20287;-82
2021/09/16 12:44:35;;;;;;;0.30;0.30;;;21.10;99.90;;;;;;4968078;28;20627;-82
2021/09/16 12:47:14;;;;;;;0.17;0.17;;;21.00;99.90;;;;;;4966322;28;20208;-82
2021/09/16 12:49:43;;;;;;;0.23;0.23;;;21.10;99.90;;;;;;4968150;28;20249;-82
2021/09/16 12:52:26;;;;;;;2.50;0.50;;;20.90;99.90;;;;;;4968623;28;20185;-82
2021/09/16 12:54:52;;;;;;;0.10;0.10;;;21.00;99.90;;;;;;4966753;28;20557;-82
2021/09/16 12:57:29;;;;;;;0.30;0.30;;;21.00;99.90;;;;;;4974953;28;20185;-82